Amherst, Colorado
Current Conditions -  °F | °C
As of 4:35 PM on Friday 31 Oct 2014 (Local Time) from KHEQ Reporting Station
Clear Clear  
Wind Chill: 52°   Ceiling: Unl
Heat Index: 52°   Visibility: 10mi
Dew Point: 28°   Wind: 20mph
Humidity: 41%   Direction: 150°SSE
Pressure: 30.25"   Gusts: 29mph
Location:  40.68°N, 102.17°W
Report Text: KHEQ 312235Z AUTO 15017G25KT 10SM CLR 11/M02 A3025 RMK AO2
Loading
Personal Weather Stations






























Interactive Weather Map
Tropical Storm Tracking
New forecast layout! Learn more

10-Day Weather Forecast

Advertisements
Track Severe Weather on mobile